sensor_id;sensor_type;location;lat;lon;timestamp;pressure;altitude;pressure_sealevel;temperature;humidity
84382;BME280;74572;51.834;5.820;2024-02-21T00:02:11;102254.19;;;8.34;81.21
84382;BME280;74572;51.834;5.820;2024-02-21T00:04:36;102259.13;;;8.32;81.14
84382;BME280;74572;51.834;5.820;2024-02-21T00:07:04;102266.72;;;8.32;81.08
84382;BME280;74572;51.834;5.820;2024-02-21T00:09:29;102256.84;;;8.36;81.42
84382;BME280;74572;51.834;5.820;2024-02-21T00:11:55;102259.38;;;8.36;81.43
84382;BME280;74572;51.834;5.820;2024-02-21T00:14:20;102245.69;;;8.34;81.13
84382;BME280;74572;51.834;5.820;2024-02-21T00:16:46;102238.97;;;8.34;81.18
84382;BME280;74572;51.834;5.820;2024-02-21T00:19:12;102242.09;;;8.31;81.15
84382;BME280;74572;51.834;5.820;2024-02-21T00:21:37;102237.19;;;8.33;81.29
84382;BME280;74572;51.834;5.820;2024-02-21T00:24:03;102234.03;;;8.36;81.13
84382;BME280;74572;51.834;5.820;2024-02-21T00:26:28;102234.16;;;8.37;81.24
84382;BME280;74572;51.834;5.820;2024-02-21T00:28:54;102227.44;;;8.38;81.18
84382;BME280;74572;51.834;5.820;2024-02-21T00:31:19;102228.34;;;8.38;81.40
84382;BME280;74572;51.834;5.820;2024-02-21T00:33:44;102223.41;;;8.40;81.00
84382;BME280;74572;51.834;5.820;2024-02-21T00:36:10;102220.47;;;8.35;81.37
84382;BME280;74572;51.834;5.820;2024-02-21T00:38:35;102229.72;;;8.35;81.17
84382;BME280;74572;51.834;5.820;2024-02-21T00:41:01;102223.31;;;8.29;81.51
84382;BME280;74572;51.834;5.820;2024-02-21T00:43:26;102212.44;;;8.30;81.68
84382;BME280;74572;51.834;5.820;2024-02-21T00:45:52;102203.19;;;8.31;81.20
84382;BME280;74572;51.834;5.820;2024-02-21T00:48:17;102199.91;;;8.32;81.60
84382;BME280;74572;51.834;5.820;2024-02-21T00:50:43;102194.97;;;8.34;81.16
84382;BME280;74572;51.834;5.820;2024-02-21T00:53:08;102193.19;;;8.32;81.63
84382;BME280;74572;51.834;5.820;2024-02-21T00:55:35;102192.31;;;8.32;81.40
84382;BME280;74572;51.834;5.820;2024-02-21T00:58:00;102181.25;;;8.31;81.65
84382;BME280;74572;51.834;5.820;2024-02-21T01:00:26;102193.78;;;8.30;81.36
84382;BME280;74572;51.834;5.820;2024-02-21T01:02:54;102191.66;;;8.24;81.88
84382;BME280;74572;51.834;5.820;2024-02-21T01:05:19;102183.41;;;8.27;82.03
84382;BME280;74572;51.834;5.820;2024-02-21T01:07:45;102185.06;;;8.26;81.47
84382;BME280;74572;51.834;5.820;2024-02-21T01:10:10;102191.88;;;8.27;81.94
84382;BME280;74572;51.834;5.820;2024-02-21T01:12:36;102197.97;;;8.29;81.47
84382;BME280;74572;51.834;5.820;2024-02-21T01:15:02;102192.31;;;8.32;81.91
84382;BME280;74572;51.834;5.820;2024-02-21T01:17:27;102189.91;;;8.34;82.13
84382;BME280;74572;51.834;5.820;2024-02-21T01:19:53;102188.25;;;8.34;81.60
84382;BME280;74572;51.834;5.820;2024-02-21T01:22:18;102181.53;;;8.35;81.94
84382;BME280;74572;51.834;5.820;2024-02-21T01:24:44;102174.69;;;8.34;81.86
84382;BME280;74572;51.834;5.820;2024-02-21T01:27:09;102175.47;;;8.32;81.78
84382;BME280;74572;51.834;5.820;2024-02-21T01:29:35;102176.47;;;8.35;81.48
84382;BME280;74572;51.834;5.820;2024-02-21T01:32:00;102178.25;;;8.36;81.92
84382;BME280;74572;51.834;5.820;2024-02-21T01:34:26;102162.91;;;8.34;81.66
84382;BME280;74572;51.834;5.820;2024-02-21T01:36:51;102156.19;;;8.35;81.67
84382;BME280;74572;51.834;5.820;2024-02-21T01:39:17;102153.34;;;8.31;81.67
84382;BME280;74572;51.834;5.820;2024-02-21T01:41:42;102147.28;;;8.29;81.32
84382;BME280;74572;51.834;5.820;2024-02-21T01:44:08;102155.63;;;8.28;81.75
84382;BME280;74572;51.834;5.820;2024-02-21T01:46:34;102154.13;;;8.30;81.33
84382;BME280;74572;51.834;5.820;2024-02-21T01:49:00;102140.41;;;8.28;81.73
84382;BME280;74572;51.834;5.820;2024-02-21T01:51:28;102150.81;;;8.31;81.79
84382;BME280;74572;51.834;5.820;2024-02-21T01:53:55;102154.13;;;8.30;81.60
84382;BME280;74572;51.834;5.820;2024-02-21T01:56:22;102155.16;;;8.32;81.26
84382;BME280;74572;51.834;5.820;2024-02-21T01:58:48;102165.56;;;8.36;81.17
84382;BME280;74572;51.834;5.820;2024-02-21T02:01:14;102151.13;;;8.35;81.44
84382;BME280;74572;51.834;5.820;2024-02-21T02:03:39;102156.19;;;8.35;81.33
84382;BME280;74572;51.834;5.820;2024-02-21T02:06:05;102153.78;;;8.36;81.39
84382;BME280;74572;51.834;5.820;2024-02-21T02:08:32;102154.66;;;8.37;81.21
84382;BME280;74572;51.834;5.820;2024-02-21T02:10:57;102143.50;;;8.35;81.24
84382;BME280;74572;51.834;5.820;2024-02-21T02:13:23;102142.75;;;8.36;81.31
84382;BME280;74572;51.834;5.820;2024-02-21T02:15:49;102146.06;;;8.35;81.13
84382;BME280;74572;51.834;5.820;2024-02-21T02:18:16;102144.53;;;8.37;80.94
84382;BME280;74572;51.834;5.820;2024-02-21T02:20:41;102134.38;;;8.37;81.00
84382;BME280;74572;51.834;5.820;2024-02-21T02:23:30;102132.63;;;8.36;81.22
84382;BME280;74572;51.834;5.820;2024-02-21T02:25:59;102124.25;;;8.37;81.37
84382;BME280;74572;51.834;5.820;2024-02-21T02:28:26;102122.47;;;8.36;80.87
84382;BME280;74572;51.834;5.820;2024-02-21T02:30:52;102127.69;;;8.37;80.80
84382;BME280;74572;51.834;5.820;2024-02-21T02:33:18;102130.97;;;8.36;81.04
84382;BME280;74572;51.834;5.820;2024-02-21T02:35:44;102108.03;;;8.35;80.79
84382;BME280;74572;51.834;5.820;2024-02-21T02:38:09;102111.44;;;8.35;80.77
84382;BME280;74572;51.834;5.820;2024-02-21T02:40:37;102107.25;;;8.36;80.99
84382;BME280;74572;51.834;5.820;2024-02-21T02:43:03;102100.41;;;8.35;81.08
84382;BME280;74572;51.834;5.820;2024-02-21T02:45:29;102087.59;;;8.33;81.10
84382;BME280;74572;51.834;5.820;2024-02-21T02:47:55;102087.44;;;8.31;81.11
84382;BME280;74572;51.834;5.820;2024-02-21T02:50:25;102086.72;;;8.32;80.80
84382;BME280;74572;51.834;5.820;2024-02-21T02:52:51;102080.75;;;8.32;80.92
84382;BME280;74572;51.834;5.820;2024-02-21T02:55:16;102085.84;;;8.32;81.07
84382;BME280;74572;51.834;5.820;2024-02-21T02:57:42;102096.88;;;8.32;80.95
84382;BME280;74572;51.834;5.820;2024-02-21T03:00:08;102091.50;;;8.29;81.31
84382;BME280;74572;51.834;5.820;2024-02-21T03:02:37;102092.50;;;8.31;80.64
84382;BME280;74572;51.834;5.820;2024-02-21T03:05:14;102080.88;;;8.34;80.80
84382;BME280;74572;51.834;5.820;2024-02-21T03:07:40;102075.69;;;8.32;80.85
84382;BME280;74572;51.834;5.820;2024-02-21T03:10:06;102074.63;;;8.30;81.53
84382;BME280;74572;51.834;5.820;2024-02-21T03:12:31;102072.22;;;8.31;80.86
84382;BME280;74572;51.834;5.820;2024-02-21T03:14:57;102071.50;;;8.32;80.85
84382;BME280;74572;51.834;5.820;2024-02-21T03:17:23;102067.91;;;8.30;80.91
84382;BME280;74572;51.834;5.820;2024-02-21T03:19:48;102069.69;;;8.31;80.83
84382;BME280;74572;51.834;5.820;2024-02-21T03:22:15;102070.63;;;8.32;80.88
84382;BME280;74572;51.834;5.820;2024-02-21T03:24:41;102068.22;;;8.34;81.04
84382;BME280;74572;51.834;5.820;2024-02-21T03:27:07;102076.56;;;8.32;80.80
84382;BME280;74572;51.834;5.820;2024-02-21T03:29:32;102068.97;;;8.32;81.15
84382;BME280;74572;51.834;5.820;2024-02-21T03:31:58;102067.31;;;8.33;80.65
84382;BME280;74572;51.834;5.820;2024-02-21T03:34:23;102064.63;;;8.31;80.77
84382;BME280;74572;51.834;5.820;2024-02-21T03:36:48;102049.41;;;8.31;80.60
84382;BME280;74572;51.834;5.820;2024-02-21T03:39:14;102049.41;;;8.31;81.17
84382;BME280;74572;51.834;5.820;2024-02-21T03:41:39;102051.22;;;8.32;80.76
84382;BME280;74572;51.834;5.820;2024-02-21T03:44:05;102051.22;;;8.32;80.84
84382;BME280;74572;51.834;5.820;2024-02-21T03:46:30;102036.03;;;8.32;80.55
84382;BME280;74572;51.834;5.820;2024-02-21T03:48:57;102034.22;;;8.31;80.60
84382;BME280;74572;51.834;5.820;2024-02-21T03:51:22;102033.31;;;8.31;80.96
84382;BME280;74572;51.834;5.820;2024-02-21T03:53:48;102030.06;;;8.32;80.86
84382;BME280;74572;51.834;5.820;2024-02-21T03:56:13;102028.25;;;8.31;80.44
84382;BME280;74572;51.834;5.820;2024-02-21T03:58:38;102032.44;;;8.30;80.96
84382;BME280;74572;51.834;5.820;2024-02-21T04:01:04;102035.13;;;8.32;80.79
84382;BME280;74572;51.834;5.820;2024-02-21T04:03:30;102036.03;;;8.32;80.82
84382;BME280;74572;51.834;5.820;2024-02-21T04:05:56;102019.00;;;8.31;80.64
84382;BME280;74572;51.834;5.820;2024-02-21T04:08:22;102025.00;;;8.32;80.68
84382;BME280;74572;51.834;5.820;2024-02-21T04:10:48;102023.19;;;8.31;80.89
84382;BME280;74572;51.834;5.820;2024-02-21T04:13:14;102016.34;;;8.30;80.51
84382;BME280;74572;51.834;5.820;2024-02-21T04:15:39;102019.63;;;8.29;80.63
84382;BME280;74572;51.834;5.820;2024-02-21T04:18:05;102021.28;;;8.28;80.76
84382;BME280;74572;51.834;5.820;2024-02-21T04:20:30;102025.59;;;8.29;80.69
84382;BME280;74572;51.834;5.820;2024-02-21T04:22:56;102022.16;;;8.29;80.91
84382;BME280;74572;51.834;5.820;2024-02-21T04:25:22;102024.69;;;8.29;80.61
84382;BME280;74572;51.834;5.820;2024-02-21T04:27:48;102027.38;;;8.30;80.81
84382;BME280;74572;51.834;5.820;2024-02-21T04:30:13;102022.28;;;8.30;80.59
84382;BME280;74572;51.834;5.820;2024-02-21T04:32:41;102016.34;;;8.30;80.69
84382;BME280;74572;51.834;5.820;2024-02-21T04:35:07;102018.09;;;8.31;80.49
84382;BME280;74572;51.834;5.820;2024-02-21T04:37:33;102009.63;;;8.30;80.78
84382;BME280;74572;51.834;5.820;2024-02-21T04:39:58;102012.16;;;8.30;80.47
84382;BME280;74572;51.834;5.820;2024-02-21T04:42:24;102005.31;;;8.29;80.42
84382;BME280;74572;51.834;5.820;2024-02-21T04:44:49;102015.44;;;8.29;80.35
84382;BME280;74572;51.834;5.820;2024-02-21T04:47:15;102022.28;;;8.30;80.32
84382;BME280;74572;51.834;5.820;2024-02-21T04:49:40;102017.09;;;8.29;80.52
84382;BME280;74572;51.834;5.820;2024-02-21T04:52:06;102008.59;;;8.28;80.39
84382;BME280;74572;51.834;5.820;2024-02-21T04:54:31;102004.41;;;8.29;80.29
84382;BME280;74572;51.834;5.820;2024-02-21T04:56:56;101995.16;;;8.29;80.43
84382;BME280;74572;51.834;5.820;2024-02-21T04:59:22;102002.91;;;8.31;80.09
84382;BME280;74572;51.834;5.820;2024-02-21T05:01:47;101988.56;;;8.31;80.29
84382;BME280;74572;51.834;5.820;2024-02-21T05:04:13;101977.41;;;8.29;80.45
84382;BME280;74572;51.834;5.820;2024-02-21T05:06:39;101982.63;;;8.31;80.62
84382;BME280;74572;51.834;5.820;2024-02-21T05:09:05;101980.25;;;8.32;80.29
84382;BME280;74572;51.834;5.820;2024-02-21T05:11:31;101967.28;;;8.29;80.36
84382;BME280;74572;51.834;5.820;2024-02-21T05:13:56;101958.03;;;8.30;80.20
84382;BME280;74572;51.834;5.820;2024-02-21T05:16:22;101964.88;;;8.31;80.40
84382;BME280;74572;51.834;5.820;2024-02-21T05:18:47;101959.69;;;8.29;80.21
84382;BME280;74572;51.834;5.820;2024-02-21T05:21:13;101962.34;;;8.31;80.43
84382;BME280;74572;51.834;5.820;2024-02-21T05:23:39;101968.28;;;8.31;80.35
84382;BME280;74572;51.834;5.820;2024-02-21T05:26:05;101963.09;;;8.30;80.37
84382;BME280;74572;51.834;5.820;2024-02-21T05:28:31;101959.97;;;8.32;80.20
84382;BME280;74572;51.834;5.820;2024-02-21T05:30:56;101954.88;;;8.32;80.27
84382;BME280;74572;51.834;5.820;2024-02-21T05:33:22;101947.88;;;8.30;80.09
84382;BME280;74572;51.834;5.820;2024-02-21T05:35:48;101940.69;;;8.35;80.24
84382;BME280;74572;51.834;5.820;2024-02-21T05:38:14;101942.47;;;8.36;79.90
84382;BME280;74572;51.834;5.820;2024-02-21T05:40:39;101936.50;;;8.35;79.98
84382;BME280;74572;51.834;5.820;2024-02-21T05:43:09;101937.28;;;8.34;79.82
84382;BME280;74572;51.834;5.820;2024-02-21T05:45:35;101932.19;;;8.34;80.37
84382;BME280;74572;51.834;5.820;2024-02-21T05:48:00;101928.78;;;8.34;80.26
84382;BME280;74572;51.834;5.820;2024-02-21T05:50:26;101925.34;;;8.33;80.39
84382;BME280;74572;51.834;5.820;2024-02-21T05:52:54;101922.94;;;8.35;80.22
84382;BME280;74572;51.834;5.820;2024-02-21T05:55:21;101917.00;;;8.34;79.88
84382;BME280;74572;51.834;5.820;2024-02-21T05:57:46;101914.56;;;8.36;79.88
84382;BME280;74572;51.834;5.820;2024-02-21T06:00:13;101910.41;;;8.36;80.09
84382;BME280;74572;51.834;5.820;2024-02-21T06:02:39;101904.44;;;8.36;79.78
84382;BME280;74572;51.834;5.820;2024-02-21T06:05:06;101906.22;;;8.37;79.71
84382;BME280;74572;51.834;5.820;2024-02-21T06:07:33;101904.44;;;8.36;80.26
84382;BME280;74572;51.834;5.820;2024-02-21T06:09:58;101897.59;;;8.35;80.27
84382;BME280;74572;51.834;5.820;2024-02-21T06:12:24;101901.00;;;8.35;80.10
84382;BME280;74572;51.834;5.820;2024-02-21T06:14:49;101895.81;;;8.34;79.93
84382;BME280;74572;51.834;5.820;2024-02-21T06:17:15;101900.00;;;8.33;79.86
84382;BME280;74572;51.834;5.820;2024-02-21T06:19:42;101893.16;;;8.32;79.98
84382;BME280;74572;51.834;5.820;2024-02-21T06:22:08;101890.47;;;8.30;79.90
84382;BME280;74572;51.834;5.820;2024-02-21T06:24:35;101890.22;;;8.27;79.64
84382;BME280;74572;51.834;5.820;2024-02-21T06:27:00;101879.22;;;8.27;79.88
84382;BME280;74572;51.834;5.820;2024-02-21T06:29:25;101888.56;;;8.28;80.09
84382;BME280;74572;51.834;5.820;2024-02-21T06:31:51;101885.06;;;8.26;79.89
84382;BME280;74572;51.834;5.820;2024-02-21T06:34:16;101881.63;;;8.25;79.97
84382;BME280;74572;51.834;5.820;2024-02-21T06:36:42;101885.16;;;8.27;80.18
84382;BME280;74572;51.834;5.820;2024-02-21T06:39:07;101885.94;;;8.26;80.20
84382;BME280;74572;51.834;5.820;2024-02-21T06:41:33;101888.47;;;8.26;80.10
84382;BME280;74572;51.834;5.820;2024-02-21T06:43:59;101885.69;;;8.23;80.17
84382;BME280;74572;51.834;5.820;2024-02-21T06:46:26;101884.94;;;8.24;80.29
84382;BME280;74572;51.834;5.820;2024-02-21T06:48:52;101884.94;;;8.24;79.71
84382;BME280;74572;51.834;5.820;2024-02-21T06:51:18;101889.25;;;8.25;80.39
84382;BME280;74572;51.834;5.820;2024-02-21T06:53:44;101887.69;;;8.27;79.76
84382;BME280;74572;51.834;5.820;2024-02-21T06:56:10;101889.38;;;8.27;80.05
84382;BME280;74572;51.834;5.820;2024-02-21T06:58:35;101891.09;;;8.28;80.11
84382;BME280;74572;51.834;5.820;2024-02-21T07:01:01;101889.38;;;8.27;79.76
84382;BME280;74572;51.834;5.820;2024-02-21T07:03:27;101887.69;;;8.27;79.90
84382;BME280;74572;51.834;5.820;2024-02-21T07:05:52;101889.47;;;8.28;79.78
84382;BME280;74572;51.834;5.820;2024-02-21T07:08:18;101884.38;;;8.28;80.06
84382;BME280;74572;51.834;5.820;2024-02-21T07:10:43;101881.22;;;8.31;79.56
84382;BME280;74572;51.834;5.820;2024-02-21T07:13:09;101883.91;;;8.32;79.54
84382;BME280;74572;51.834;5.820;2024-02-21T07:15:34;101866.91;;;8.31;79.47
84382;BME280;74572;51.834;5.820;2024-02-21T07:18:01;101873.00;;;8.34;79.65
84382;BME280;74572;51.834;5.820;2024-02-21T07:20:27;101865.66;;;8.37;79.55
84382;BME280;74572;51.834;5.820;2024-02-21T07:22:52;101871.72;;;8.39;79.58
84382;BME280;74572;51.834;5.820;2024-02-21T07:25:17;101866.91;;;8.42;79.55
84382;BME280;74572;51.834;5.820;2024-02-21T07:27:44;101859.41;;;8.43;79.47
84382;BME280;74572;51.834;5.820;2024-02-21T07:30:10;101855.56;;;8.48;79.15
84382;BME280;74572;51.834;5.820;2024-02-21T07:32:35;101862.78;;;8.54;78.97
84382;BME280;74572;51.834;5.820;2024-02-21T07:35:01;101861.38;;;8.57;79.22
84382;BME280;74572;51.834;5.820;2024-02-21T07:37:26;101853.13;;;8.60;78.68
84382;BME280;74572;51.834;5.820;2024-02-21T07:39:52;101853.25;;;8.61;78.65
84382;BME280;74572;51.834;5.820;2024-02-21T07:42:17;101839.91;;;8.64;78.67
84382;BME280;74572;51.834;5.820;2024-02-21T07:44:43;101848.63;;;8.68;78.33
84382;BME280;74572;51.834;5.820;2024-02-21T07:47:08;101838.72;;;8.71;78.09
84382;BME280;74572;51.834;5.820;2024-02-21T07:49:44;101834.78;;;8.74;77.71
84382;BME280;74572;51.834;5.820;2024-02-21T07:52:09;101834.59;;;8.83;77.95
84382;BME280;74572;51.834;5.820;2024-02-21T07:54:35;101823.91;;;8.87;77.63
84382;BME280;74572;51.834;5.820;2024-02-21T07:57:00;101805.97;;;8.95;77.57
84382;BME280;74572;51.834;5.820;2024-02-21T07:59:26;101804.00;;;9.03;76.98
84382;BME280;74572;51.834;5.820;2024-02-21T08:01:51;101802.78;;;9.10;77.00
84382;BME280;74572;51.834;5.820;2024-02-21T08:04:17;101799.41;;;9.21;76.70
84382;BME280;74572;51.834;5.820;2024-02-21T08:06:42;101794.00;;;9.28;76.44
84382;BME280;74572;51.834;5.820;2024-02-21T08:09:10;101782.44;;;9.31;76.20
84382;BME280;74572;51.834;5.820;2024-02-21T08:11:35;101792.69;;;9.33;76.13
84382;BME280;74572;51.834;5.820;2024-02-21T08:14:01;101786.31;;;9.38;75.88
84382;BME280;74572;51.834;5.820;2024-02-21T08:16:27;101784.97;;;9.43;76.03
84382;BME280;74572;51.834;5.820;2024-02-21T08:18:52;101781.22;;;9.50;75.90
84382;BME280;74572;51.834;5.820;2024-02-21T08:21:18;101786.19;;;9.48;75.95
84382;BME280;74572;51.834;5.820;2024-02-21T08:23:43;101776.25;;;9.51;76.05
84382;BME280;74572;51.834;5.820;2024-02-21T08:26:09;101774.72;;;9.53;75.79
84382;BME280;74572;51.834;5.820;2024-02-21T08:28:35;101771.19;;;9.51;75.63
84382;BME280;74572;51.834;5.820;2024-02-21T08:31:00;101769.66;;;9.53;75.25
84382;BME280;74572;51.834;5.820;2024-02-21T08:33:26;101762.13;;;9.55;75.20
84382;BME280;74572;51.834;5.820;2024-02-21T08:35:52;101767.22;;;9.55;75.67
84382;BME280;74572;51.834;5.820;2024-02-21T08:38:17;101765.09;;;9.49;nan
84382;BME280;74572;51.834;5.820;2024-02-21T08:40:43;101768.41;;;9.48;75.68
84382;BME280;74572;51.834;5.820;2024-02-21T08:43:09;101758.03;;;9.45;75.52
84382;BME280;74572;51.834;5.820;2024-02-21T08:45:34;101759.03;;;9.47;75.42
84382;BME280;74572;51.834;5.820;2024-02-21T08:48:00;101759.91;;;9.48;74.95
84382;BME280;74572;51.834;5.820;2024-02-21T08:50:25;101744.91;;;9.51;75.09
84382;BME280;74572;51.834;5.820;2024-02-21T08:52:51;101746.00;;;9.54;75.17
84382;BME280;74572;51.834;5.820;2024-02-21T08:55:16;101736.63;;;9.53;75.13
84382;BME280;74572;51.834;5.820;2024-02-21T08:57:42;101737.72;;;9.57;74.97
84382;BME280;74572;51.834;5.820;2024-02-21T09:00:08;101736.06;;;9.57;75.05
84382;BME280;74572;51.834;5.820;2024-02-21T09:02:41;101723.03;;;9.53;75.10
84382;BME280;74572;51.834;5.820;2024-02-21T09:05:13;101727.47;;;9.55;74.77
84382;BME280;74572;51.834;5.820;2024-02-21T09:07:39;101712.75;;;9.63;74.56
84382;BME280;74572;51.834;5.820;2024-02-21T09:10:05;101698.50;;;9.65;74.91
84382;BME280;74572;51.834;5.820;2024-02-21T09:12:30;101709.78;;;9.68;74.90
84382;BME280;74572;51.834;5.820;2024-02-21T09:14:56;101705.91;;;9.74;74.36
84382;BME280;74572;51.834;5.820;2024-02-21T09:17:21;101701.44;;;9.83;74.34
84382;BME280;74572;51.834;5.820;2024-02-21T09:19:47;101699.78;;;9.95;74.01
84382;BME280;74572;51.834;5.820;2024-02-21T09:22:13;101702.56;;;9.98;73.98
84382;BME280;74572;51.834;5.820;2024-02-21T09:24:38;101707.47;;;10.08;73.60
84382;BME280;74572;51.834;5.820;2024-02-21T09:27:04;101703.81;;;10.16;73.30
84382;BME280;74572;51.834;5.820;2024-02-21T09:29:31;101704.78;;;10.30;73.00
84382;BME280;74572;51.834;5.820;2024-02-21T09:31:58;101705.34;;;10.37;72.52
84382;BME280;74572;51.834;5.820;2024-02-21T09:34:24;101691.34;;;10.44;72.19
84382;BME280;74572;51.834;5.820;2024-02-21T09:36:49;101693.75;;;10.54;72.26
84382;BME280;74572;51.834;5.820;2024-02-21T09:39:15;101686.13;;;10.54;72.12
84382;BME280;74572;51.834;5.820;2024-02-21T09:41:45;101688.81;;;10.44;71.93
84382;BME280;74572;51.834;5.820;2024-02-21T09:44:13;101689.56;;;10.43;72.10
84382;BME280;74572;51.834;5.820;2024-02-21T09:47:01;101682.63;;;10.41;71.69
84382;BME280;74572;51.834;5.820;2024-02-21T09:49:36;101685.66;;;10.35;72.02
84382;BME280;74572;51.834;5.820;2024-02-21T09:52:06;101670.84;;;10.29;72.35
84382;BME280;74572;51.834;5.820;2024-02-21T09:54:41;101670.78;;;10.16;72.60
84382;BME280;74572;51.834;5.820;2024-02-21T09:57:10;101667.59;;;10.07;72.96
84382;BME280;74572;51.834;5.820;2024-02-21T09:59:35;101647.41;;;9.97;72.57
84382;BME280;74572;51.834;5.820;2024-02-21T10:02:01;101646.53;;;9.96;72.95
84382;BME280;74572;51.834;5.820;2024-02-21T10:04:27;101651.91;;;10.01;73.49
84382;BME280;74572;51.834;5.820;2024-02-21T10:06:55;101644.88;;;9.97;73.10
84382;BME280;74572;51.834;5.820;2024-02-21T10:11:48;101631.88;;;9.81;74.41
84382;BME280;74572;51.834;5.820;2024-02-21T10:14:15;101616.22;;;9.75;74.29
84382;BME280;74572;51.834;5.820;2024-02-21T10:16:40;101615.34;;;9.62;74.38
84382;BME280;74572;51.834;5.820;2024-02-21T10:19:06;101611.94;;;9.50;75.31
84382;BME280;74572;51.834;5.820;2024-02-21T10:21:32;101611.41;;;9.54;75.37
84382;BME280;74572;51.834;5.820;2024-02-21T10:23:57;101595.72;;;9.60;75.41
84382;BME280;74572;51.834;5.820;2024-02-21T10:26:23;101590.53;;;9.58;75.85
84382;BME280;74572;51.834;5.820;2024-02-21T10:28:48;101592.84;;;9.55;75.96
84382;BME280;74572;51.834;5.820;2024-02-21T10:31:27;101579.38;;;9.56;76.06
84382;BME280;74572;51.834;5.820;2024-02-21T10:34:00;101572.63;;;9.57;76.36
84382;BME280;74572;51.834;5.820;2024-02-21T10:36:28;101566.78;;;9.58;76.50
84382;BME280;74572;51.834;5.820;2024-02-21T10:38:54;101567.94;;;9.63;76.88
84382;BME280;74572;51.834;5.820;2024-02-21T10:41:21;101567.94;;;9.75;75.96
84382;BME280;74572;51.834;5.820;2024-02-21T10:43:50;101559.75;;;9.79;76.13
84382;BME280;74572;51.834;5.820;2024-02-21T10:46:19;101553.94;;;9.93;75.92
84382;BME280;74572;51.834;5.820;2024-02-21T10:48:45;101545.75;;;9.97;75.52
84382;BME280;74572;51.834;5.820;2024-02-21T10:51:17;101540.00;;;9.99;nan
84382;BME280;74572;51.834;5.820;2024-02-21T10:54:07;101524.44;;;10.08;75.40
84382;BME280;74572;51.834;5.820;2024-02-21T10:56:38;101518.94;;;10.27;74.86
84382;BME280;74572;51.834;5.820;2024-02-21T10:59:08;101518.38;;;10.31;74.57
84382;BME280;74572;51.834;5.820;2024-02-21T11:01:34;101495.13;;;10.38;74.03
84382;BME280;74572;51.834;5.820;2024-02-21T11:04:07;101493.84;;;10.45;73.89
84382;BME280;74572;51.834;5.820;2024-02-21T11:06:34;101480.53;;;10.49;73.82
84382;BME280;74572;51.834;5.820;2024-02-21T11:09:10;101461.94;;;10.50;73.46
84382;BME280;74572;51.834;5.820;2024-02-21T11:11:38;101451.56;;;10.47;73.14
84382;BME280;74572;51.834;5.820;2024-02-21T11:16:39;101420.06;;;10.45;72.20
84382;BME280;74572;51.834;5.820;2024-02-21T11:19:19;101431.19;;;10.60;72.04
84382;BME280;74572;51.834;5.820;2024-02-21T11:21:45;101449.41;;;10.66;71.68
84382;BME280;74572;51.834;5.820;2024-02-21T11:24:10;101450.78;;;10.61;72.10
84382;BME280;74572;51.834;5.820;2024-02-21T11:26:37;101442.56;;;10.65;71.86
84382;BME280;74572;51.834;5.820;2024-02-21T11:29:03;101446.09;;;10.67;71.84
84382;BME280;74572;51.834;5.820;2024-02-21T11:31:44;101462.31;;;10.69;71.58
84382;BME280;74572;51.834;5.820;2024-02-21T11:34:17;101448.44;;;10.64;71.61
84382;BME280;74572;51.834;5.820;2024-02-21T11:36:52;101436.19;;;10.58;71.31
84382;BME280;74572;51.834;5.820;2024-02-21T11:39:25;101441.28;;;10.58;71.56
84382;BME280;74572;51.834;5.820;2024-02-21T11:44:26;101424.09;;;10.54;71.17
84382;BME280;74572;51.834;5.820;2024-02-21T11:46:51;101403.84;;;10.56;70.72
84382;BME280;74572;51.834;5.820;2024-02-21T11:49:17;101407.75;;;10.51;70.87
84382;BME280;74572;51.834;5.820;2024-02-21T11:51:43;101420.06;;;10.45;71.09
84382;BME280;74572;51.834;5.820;2024-02-21T11:54:08;101417.94;;;10.37;71.56
84382;BME280;74572;51.834;5.820;2024-02-21T11:56:35;101420.75;;;10.29;71.19
84382;BME280;74572;51.834;5.820;2024-02-21T11:59:00;101409.31;;;10.22;71.55
84382;BME280;74572;51.834;5.820;2024-02-21T12:01:26;101399.91;;;10.21;71.63
84382;BME280;74572;51.834;5.820;2024-02-21T12:03:51;101387.03;;;10.31;71.72
84382;BME280;74572;51.834;5.820;2024-02-21T12:06:17;101387.59;;;10.54;70.84
84382;BME280;74572;51.834;5.820;2024-02-21T12:08:47;101381.88;;;10.71;70.21
84382;BME280;74572;51.834;5.820;2024-02-21T12:11:20;101370.34;;;10.76;69.36
84382;BME280;74572;51.834;5.820;2024-02-21T12:13:46;101364.31;;;10.89;69.38
84382;BME280;74572;51.834;5.820;2024-02-21T12:16:15;101346.16;;;10.97;69.43
84382;BME280;74572;51.834;5.820;2024-02-21T12:18:41;101308.19;;;11.15;68.82
84382;BME280;74572;51.834;5.820;2024-02-21T12:21:07;101308.31;;;11.46;67.97
84382;BME280;74572;51.834;5.820;2024-02-21T12:23:33;101297.47;;;11.65;66.77
84382;BME280;74572;51.834;5.820;2024-02-21T12:25:59;101292.31;;;11.78;66.81
84382;BME280;74572;51.834;5.820;2024-02-21T12:28:24;101283.97;;;11.81;66.40
84382;BME280;74572;51.834;5.820;2024-02-21T12:30:51;101277.81;;;11.77;66.39
84382;BME280;74572;51.834;5.820;2024-02-21T12:33:18;101260.41;;;11.85;66.29
84382;BME280;74572;51.834;5.820;2024-02-21T12:35:43;101264.72;;;11.86;66.00
84382;BME280;74572;51.834;5.820;2024-02-21T12:38:09;101251.22;;;12.03;66.05
84382;BME280;74572;51.834;5.820;2024-02-21T12:40:34;101244.34;;;12.02;65.61
84382;BME280;74572;51.834;5.820;2024-02-21T12:43:00;101235.28;;;12.07;65.47
84382;BME280;74572;51.834;5.820;2024-02-21T12:45:28;101236.41;;;12.12;65.70
84382;BME280;74572;51.834;5.820;2024-02-21T12:47:53;101232.72;;;12.07;65.91
84382;BME280;74572;51.834;5.820;2024-02-21T12:50:19;101216.84;;;12.13;64.89
84382;BME280;74572;51.834;5.820;2024-02-21T12:52:45;101214.47;;;12.16;65.16
84382;BME280;74572;51.834;5.820;2024-02-21T12:55:10;101201.09;;;12.20;64.89
84382;BME280;74572;51.834;5.820;2024-02-21T12:57:37;101186.50;;;12.33;65.21
84382;BME280;74572;51.834;5.820;2024-02-21T13:00:03;101185.72;;;12.34;64.93
84382;BME280;74572;51.834;5.820;2024-02-21T13:02:29;101169.44;;;12.32;64.34